createdAt,value
2022-09-07T00:00:53.707Z,19.12
2022-09-07T00:03:20.641Z,19.16
2022-09-07T00:05:49.944Z,19.18
2022-09-07T00:08:19.485Z,19.21
2022-09-07T00:11:02.317Z,19.20
2022-09-07T00:13:35.060Z,19.22
2022-09-07T00:16:06.786Z,19.16
2022-09-07T00:18:33.883Z,19.22
2022-09-07T00:21:02.422Z,19.21
2022-09-07T00:23:32.539Z,19.18
2022-09-07T00:26:05.093Z,19.21
2022-09-07T00:28:34.433Z,19.08
2022-09-07T00:31:01.245Z,19.02
2022-09-07T00:33:28.168Z,18.98
2022-09-07T00:35:55.146Z,18.79
2022-09-07T00:38:24.228Z,18.79
2022-09-07T00:40:50.887Z,18.72
2022-09-07T00:43:39.548Z,18.69
2022-09-07T00:46:12.294Z,18.63
2022-09-07T00:48:42.464Z,18.55
2022-09-07T00:51:14.867Z,18.57
2022-09-07T00:53:44.743Z,18.56
2022-09-07T00:56:15.203Z,18.54
2022-09-07T00:58:46.801Z,18.42
2022-09-07T01:01:17.338Z,18.35
2022-09-07T01:03:48.904Z,18.35
2022-09-07T01:06:26.626Z,18.39
2022-09-07T01:08:55.307Z,18.34
2022-09-07T01:11:23.368Z,18.22
2022-09-07T01:13:52.387Z,18.21
2022-09-07T01:16:57.807Z,18.20
2022-09-07T01:19:29.454Z,18.13
2022-09-07T01:22:17.306Z,18.09
2022-09-07T01:24:55.259Z,18.08
2022-09-07T01:27:37.002Z,18.09
2022-09-07T01:30:13.081Z,18.05
2022-09-07T01:33:10.723Z,18.03
2022-09-07T01:35:40.578Z,18.02
2022-09-07T01:38:28.650Z,18.00
2022-09-07T01:41:15.548Z,17.96
2022-09-07T01:44:14.417Z,17.97
2022-09-07T01:46:56.868Z,17.95
2022-09-07T01:49:41.682Z,17.95
2022-09-07T01:52:31.029Z,17.93
2022-09-07T01:55:03.703Z,17.90
2022-09-07T01:58:04.649Z,17.88
2022-09-07T02:00:34.262Z,17.89
2022-09-07T02:03:00.853Z,17.93
2022-09-07T02:05:39.062Z,17.92
2022-09-07T02:08:14.025Z,17.95
2022-09-07T02:10:49.038Z,17.96
2022-09-07T02:13:25.289Z,17.94
2022-09-07T02:15:58.348Z,17.90
2022-09-07T02:18:28.720Z,17.89
2022-09-07T02:21:00.275Z,17.86
2022-09-07T02:23:33.139Z,17.88
2022-09-07T02:26:03.993Z,17.93
2022-09-07T02:28:38.340Z,17.94
2022-09-07T02:31:06.262Z,17.87
2022-09-07T02:33:33.182Z,17.86
2022-09-07T02:36:01.735Z,17.95
2022-09-07T02:38:28.660Z,17.89
2022-09-07T02:40:57.336Z,17.90
2022-09-07T02:43:28.092Z,17.90
2022-09-07T02:45:57.668Z,17.90
2022-09-07T02:48:48.586Z,17.89
2022-09-07T02:51:17.858Z,17.89
2022-09-07T02:53:56.560Z,17.90
2022-09-07T02:56:37.043Z,17.88
2022-09-07T02:59:32.242Z,17.84
2022-09-07T03:02:12.952Z,17.80
2022-09-07T03:05:14.712Z,17.81
2022-09-07T03:07:49.236Z,17.80
2022-09-07T03:10:19.052Z,17.80
2022-09-07T03:12:48.124Z,17.78
2022-09-07T03:15:24.247Z,17.74
2022-09-07T03:17:51.677Z,17.77
2022-09-07T03:20:21.414Z,17.74
2022-09-07T03:22:49.871Z,17.77
2022-09-07T03:25:17.552Z,17.77
2022-09-07T03:27:44.539Z,17.77
2022-09-07T03:30:12.893Z,17.78
2022-09-07T03:32:39.542Z,17.80
2022-09-07T03:35:08.209Z,17.86
2022-09-07T03:37:40.564Z,17.84
2022-09-07T03:40:09.642Z,17.81
2022-09-07T03:42:36.833Z,17.80
2022-09-07T03:45:04.181Z,17.84
2022-09-07T03:47:30.880Z,17.90
2022-09-07T03:49:57.630Z,17.92
2022-09-07T03:52:24.177Z,17.92
2022-09-07T03:54:50.726Z,17.97
2022-09-07T03:57:20.342Z,17.97
2022-09-07T03:59:52.426Z,17.83
2022-09-07T04:02:19.350Z,17.92
2022-09-07T04:04:46.183Z,17.86
2022-09-07T04:07:13.339Z,17.87
2022-09-07T04:09:40.109Z,17.87
2022-09-07T04:12:06.826Z,17.76
2022-09-07T04:14:33.433Z,17.70
2022-09-07T04:16:59.995Z,17.69
2022-09-07T04:19:26.556Z,17.64
2022-09-07T04:21:53.361Z,17.64
2022-09-07T04:24:19.907Z,17.62
2022-09-07T04:26:46.412Z,17.70
2022-09-07T04:29:15.235Z,17.69
2022-09-07T04:31:44.128Z,17.66
2022-09-07T04:34:14.383Z,17.68
2022-09-07T04:36:41.005Z,17.65
2022-09-07T04:39:07.567Z,17.62
2022-09-07T04:41:34.970Z,17.64
2022-09-07T04:44:03.646Z,17.65
2022-09-07T04:46:35.675Z,17.63
2022-09-07T04:49:07.183Z,17.64
2022-09-07T04:51:37.481Z,17.66
2022-09-07T04:54:07.344Z,17.67
2022-09-07T04:56:34.039Z,17.68
2022-09-07T04:59:06.175Z,17.63
2022-09-07T05:01:33.299Z,17.65
2022-09-07T05:04:01.293Z,17.66
2022-09-07T05:06:30.784Z,17.61
2022-09-07T05:08:58.703Z,17.62
2022-09-07T05:11:29.060Z,17.63
2022-09-07T05:13:58.203Z,17.60
2022-09-07T05:16:25.457Z,17.62
2022-09-07T05:19:01.616Z,17.69
2022-09-07T05:21:31.363Z,17.77
2022-09-07T05:23:58.826Z,17.80
2022-09-07T05:26:28.549Z,17.91
2022-09-07T05:31:48.299Z,18.03
2022-09-07T05:34:31.387Z,18.07
2022-09-07T05:36:58.583Z,18.08
2022-09-07T05:39:25.656Z,18.11
2022-09-07T05:41:52.271Z,18.15
2022-09-07T05:47:10.880Z,18.24
2022-09-07T05:49:37.622Z,18.35
2022-09-07T05:52:04.205Z,18.39
2022-09-07T05:54:30.787Z,18.44
2022-09-07T05:56:59.792Z,18.45
2022-09-07T05:59:26.330Z,18.45
2022-09-07T06:01:53.001Z,18.49
2022-09-07T06:04:19.670Z,18.51
2022-09-07T06:07:04.661Z,18.51
2022-09-07T06:09:32.940Z,18.64
2022-09-07T06:11:59.980Z,18.78
2022-09-07T06:14:26.544Z,18.91
2022-09-07T06:16:55.589Z,18.88
2022-09-07T06:19:24.787Z,18.82
2022-09-07T06:21:53.504Z,18.76
2022-09-07T06:24:20.003Z,18.76
2022-09-07T06:26:48.793Z,18.78
2022-09-07T06:29:15.440Z,18.98
2022-09-07T06:34:36.027Z,19.50
2022-09-07T06:37:02.575Z,19.75
2022-09-07T06:39:29.095Z,20.40
2022-09-07T06:44:30.393Z,22.05
2022-09-07T06:47:04.666Z,22.03
2022-09-07T06:49:31.727Z,21.81
2022-09-07T06:51:58.267Z,22.51
2022-09-07T06:57:16.048Z,21.22
2022-09-07T06:59:42.674Z,20.96
2022-09-07T07:02:11.526Z,21.41
2022-09-07T07:04:40.806Z,23.35
2022-09-07T07:07:14.346Z,25.86
2022-09-07T07:09:41.618Z,26.21
2022-09-07T07:12:08.835Z,24.25
2022-09-07T07:14:39.875Z,23.57
2022-09-07T07:17:13.054Z,23.71
2022-09-07T07:19:39.583Z,24.12
2022-09-07T07:24:52.780Z,26.29
2022-09-07T07:27:21.581Z,26.61
2022-09-07T07:29:49.259Z,26.74
2022-09-07T07:32:16.161Z,26.02
2022-09-07T07:35:19.846Z,24.99
2022-09-07T07:37:48.291Z,24.06
2022-09-07T07:40:16.597Z,23.45
2022-09-07T07:42:45.133Z,22.87
2022-09-07T07:48:00.469Z,22.46
2022-09-07T07:50:34.615Z,22.67
2022-09-07T07:55:52.209Z,22.84
2022-09-07T07:58:19.679Z,23.90
2022-09-07T08:00:55.829Z,24.38
2022-09-07T08:03:23.478Z,25.48
2022-09-07T08:05:50.432Z,26.25
2022-09-07T08:08:17.024Z,26.42
2022-09-07T08:10:43.704Z,26.45
2022-09-07T08:13:14.189Z,25.44
2022-09-07T08:15:50.702Z,25.14
2022-09-07T08:18:20.854Z,25.09
2022-09-07T08:20:50.192Z,24.82
2022-09-07T08:23:20.504Z,25.21
2022-09-07T08:25:54.659Z,25.58
2022-09-07T08:28:24.023Z,26.35
2022-09-07T08:30:51.549Z,26.19
2022-09-07T08:33:20.452Z,27.14
2022-09-07T08:35:59.031Z,28.21
2022-09-07T08:38:30.510Z,29.00
2022-09-07T08:40:57.982Z,29.47
2022-09-07T08:44:06.241Z,30.15
2022-09-07T08:46:45.466Z,30.40
2022-09-07T08:49:31.285Z,29.99
2022-09-07T08:52:09.199Z,29.93
2022-09-07T08:54:39.131Z,30.14
2022-09-07T08:57:28.271Z,29.85
2022-09-07T09:00:16.629Z,29.35
2022-09-07T09:02:44.658Z,29.56
2022-09-07T09:05:46.232Z,29.59
2022-09-07T09:08:18.406Z,29.84
2022-09-07T09:11:09.571Z,30.10
2022-09-07T09:13:44.178Z,29.93
2022-09-07T09:16:20.018Z,29.66
2022-09-07T09:18:52.929Z,28.62
2022-09-07T09:21:19.823Z,29.26
2022-09-07T09:23:53.623Z,29.54
2022-09-07T09:26:25.734Z,28.95
2022-09-07T09:28:56.253Z,29.05
2022-09-07T09:31:36.726Z,29.02
2022-09-07T09:34:07.345Z,28.80
2022-09-07T09:36:50.959Z,28.88
2022-09-07T09:39:35.630Z,28.83
2022-09-07T09:42:14.462Z,28.74
2022-09-07T09:44:44.280Z,28.61
2022-09-07T09:47:34.533Z,27.94
2022-09-07T09:53:40.261Z,28.01
2022-09-07T09:56:10.175Z,28.06
2022-09-07T10:01:36.864Z,28.09
2022-09-07T10:04:35.952Z,27.83
2022-09-07T10:07:10.629Z,27.56
2022-09-07T10:09:41.019Z,27.38
2022-09-07T10:12:24.529Z,27.23
2022-09-07T10:14:54.204Z,26.80
2022-09-07T10:17:41.673Z,27.00
2022-09-07T10:20:18.632Z,26.89
2022-09-07T10:22:55.084Z,26.86
2022-09-07T10:25:46.343Z,26.86
2022-09-07T10:28:25.323Z,26.92
2022-09-07T10:31:14.750Z,27.04
2022-09-07T10:34:32.536Z,27.05
2022-09-07T10:37:11.412Z,27.03
2022-09-07T10:39:42.478Z,26.96
2022-09-07T10:42:32.207Z,27.10
2022-09-07T10:45:21.825Z,27.28
2022-09-07T10:48:05.783Z,27.40
2022-09-07T10:50:56.840Z,27.49
2022-09-07T10:53:44.177Z,27.28
2022-09-07T10:56:28.453Z,27.60
2022-09-07T10:59:08.834Z,27.66
2022-09-07T11:01:55.078Z,27.66
2022-09-07T11:04:40.666Z,27.85
2022-09-07T11:07:19.203Z,28.10
2022-09-07T11:09:51.945Z,28.38
2022-09-07T11:12:26.027Z,28.57
2022-09-07T11:15:14.215Z,28.67
2022-09-07T11:17:56.517Z,28.45
2022-09-07T11:20:38.565Z,28.22
2022-09-07T11:23:33.045Z,28.55
2022-09-07T11:26:07.442Z,28.57
2022-09-07T11:28:46.386Z,28.34
2022-09-07T11:31:22.163Z,28.29
2022-09-07T11:36:58.983Z,28.36
2022-09-07T11:39:30.707Z,28.20
2022-09-07T11:45:13.598Z,28.02
2022-09-07T11:47:51.881Z,28.11
2022-09-07T11:50:22.543Z,28.09
2022-09-07T11:53:05.977Z,28.37
2022-09-07T11:55:38.353Z,28.48
2022-09-07T11:58:44.487Z,28.23
2022-09-07T12:01:28.811Z,28.33
2022-09-07T12:04:15.428Z,28.55
2022-09-07T12:07:02.226Z,28.72
2022-09-07T12:09:59.932Z,28.61
2022-09-07T12:12:42.167Z,28.61
2022-09-07T12:15:37.625Z,28.62
2022-09-07T12:18:39.446Z,28.58
2022-09-07T12:21:46.195Z,28.51
2022-09-07T12:24:41.071Z,28.68
2022-09-07T12:27:31.776Z,28.89
2022-09-07T12:29:58.275Z,28.70
2022-09-07T12:32:54.519Z,28.73
2022-09-07T12:35:31.078Z,29.04
2022-09-07T12:38:02.001Z,29.40
2022-09-07T12:40:32.275Z,29.55
2022-09-07T12:43:13.942Z,29.69
2022-09-07T12:45:40.573Z,29.81
2022-09-07T12:48:12.619Z,29.87
2022-09-07T12:50:53.576Z,29.93
2022-09-07T12:53:52.145Z,30.03
2022-09-07T12:56:24.859Z,30.14
2022-09-07T12:59:21.859Z,30.08
2022-09-07T13:02:11.962Z,29.78
2022-09-07T13:04:50.740Z,29.41
2022-09-07T13:07:35.789Z,29.44
2022-09-07T13:10:07.792Z,29.24
2022-09-07T13:12:57.893Z,29.31
2022-09-07T13:15:49.036Z,29.43
2022-09-07T13:18:27.517Z,29.25
2022-09-07T13:21:17.446Z,29.19
2022-09-07T13:27:06.066Z,29.19
2022-09-07T13:29:38.510Z,29.20
2022-09-07T13:32:20.271Z,29.31
2022-09-07T13:35:06.101Z,29.33
2022-09-07T13:37:40.003Z,29.32
2022-09-07T13:40:11.790Z,29.28
2022-09-07T13:42:45.702Z,29.07
2022-09-07T13:45:27.126Z,29.06
2022-09-07T13:48:19.445Z,29.11
2022-09-07T13:51:06.395Z,29.32
2022-09-07T13:54:03.327Z,29.40
2022-09-07T13:56:40.707Z,29.32
2022-09-07T13:59:27.446Z,29.21
2022-09-07T14:01:55.216Z,29.11
2022-09-07T14:04:29.667Z,29.08
2022-09-07T14:07:13.042Z,29.06
2022-09-07T14:09:39.968Z,29.11
2022-09-07T14:12:16.285Z,29.02
2022-09-07T14:14:42.947Z,29.15
2022-09-07T14:17:15.353Z,29.26
2022-09-07T14:19:48.300Z,29.32
2022-09-07T14:22:20.306Z,29.29
2022-09-07T14:24:48.538Z,29.06
2022-09-07T14:27:39.980Z,28.81
2022-09-07T14:30:16.901Z,28.78
2022-09-07T14:32:44.160Z,28.93
2022-09-07T14:35:19.619Z,29.00
2022-09-07T14:37:47.448Z,28.88
2022-09-07T14:40:19.552Z,28.81
2022-09-07T14:42:47.320Z,28.77
2022-09-07T14:45:22.613Z,28.72
2022-09-07T14:47:54.553Z,28.71
2022-09-07T14:50:24.653Z,28.72
2022-09-07T14:55:42.917Z,28.75
2022-09-07T14:58:15.328Z,28.74
2022-09-07T15:00:47.516Z,28.65
2022-09-07T15:03:54.004Z,28.66
2022-09-07T15:09:36.187Z,28.66
2022-09-07T15:12:18.931Z,28.69
2022-09-07T15:14:47.895Z,28.65
2022-09-07T15:17:48.303Z,28.65
2022-09-07T15:20:34.988Z,28.64
2022-09-07T15:23:05.200Z,28.66
2022-09-07T15:25:36.994Z,28.73
2022-09-07T15:28:03.847Z,28.84
2022-09-07T15:30:33.522Z,28.80
2022-09-07T15:33:00.430Z,28.78
2022-09-07T15:35:27.067Z,28.87
2022-09-07T15:38:02.429Z,28.89
2022-09-07T15:41:03.620Z,28.88
2022-09-07T15:43:28.548Z,28.88
2022-09-07T15:45:55.735Z,28.77
2022-09-07T15:48:25.939Z,28.63
2022-09-07T15:51:01.535Z,28.49
2022-09-07T15:56:20.332Z,28.30
2022-09-07T15:58:56.389Z,28.25
2022-09-07T16:04:15.801Z,28.11
2022-09-07T16:06:47.866Z,27.97
2022-09-07T16:09:15.507Z,27.95
2022-09-07T16:11:42.086Z,27.87
2022-09-07T16:14:11.758Z,27.74
2022-09-07T16:19:25.114Z,27.72
2022-09-07T16:21:51.685Z,27.67
2022-09-07T16:24:18.277Z,27.61
2022-09-07T16:26:44.937Z,27.56
2022-09-07T16:29:11.672Z,27.48
2022-09-07T16:32:44.000Z,27.44
2022-09-07T16:34:27.054Z,27.41
2022-09-07T16:36:53.613Z,27.43
2022-09-07T16:39:20.387Z,27.34
2022-09-07T16:41:51.891Z,27.18
2022-09-07T16:44:18.989Z,27.31
2022-09-07T16:46:45.543Z,27.24
2022-09-07T16:49:12.344Z,27.09
2022-09-07T16:51:39.687Z,27.12
2022-09-07T16:54:08.741Z,27.06
2022-09-07T16:56:38.950Z,27.04
2022-09-07T16:59:11.074Z,27.06
2022-09-07T17:01:38.094Z,26.99
2022-09-07T17:04:10.307Z,26.96
2022-09-07T17:06:38.082Z,26.92
2022-09-07T17:09:07.539Z,26.87
2022-09-07T17:11:37.429Z,26.74
2022-09-07T17:14:06.796Z,26.66
2022-09-07T17:16:36.901Z,26.52
2022-09-07T17:21:55.495Z,26.22
2022-09-07T17:24:24.117Z,26.09
2022-09-07T17:26:50.708Z,25.96
2022-09-07T17:29:17.303Z,25.89
2022-09-07T17:34:33.740Z,25.82
2022-09-07T17:37:01.238Z,25.68
2022-09-07T17:39:28.603Z,25.58
2022-09-07T17:41:55.275Z,25.47
2022-09-07T17:44:23.574Z,25.34
2022-09-07T17:46:50.724Z,25.25
2022-09-07T17:49:17.837Z,25.16
2022-09-07T17:51:47.360Z,25.07
2022-09-07T17:54:17.369Z,24.97
2022-09-07T17:56:45.990Z,24.90
2022-09-07T18:02:02.086Z,24.73
2022-09-07T18:04:28.982Z,24.64
2022-09-07T18:06:58.224Z,24.58
2022-09-07T18:09:24.773Z,24.53
2022-09-07T18:11:51.426Z,24.42
2022-09-07T18:14:19.166Z,24.39
2022-09-07T18:16:48.815Z,24.35
2022-09-07T18:19:15.859Z,24.67
2022-09-07T18:21:43.640Z,24.34
2022-09-07T18:24:19.227Z,24.21
2022-09-07T18:26:51.250Z,24.11
2022-09-07T18:29:33.876Z,24.03
2022-09-07T18:32:08.074Z,23.93
2022-09-07T18:34:36.330Z,23.75
2022-09-07T18:37:05.495Z,23.76
2022-09-07T18:39:33.465Z,23.71
2022-09-07T18:42:00.061Z,24.13
2022-09-07T18:47:27.932Z,23.77
2022-09-07T18:49:55.200Z,24.18
2022-09-07T18:55:11.396Z,23.51
2022-09-07T18:57:38.606Z,23.41
2022-09-07T19:00:07.865Z,23.27
2022-09-07T19:02:35.542Z,23.22
2022-09-07T19:07:48.947Z,23.03
2022-09-07T19:10:16.852Z,23.00
2022-09-07T19:12:45.914Z,22.88
2022-09-07T19:15:15.258Z,22.74
2022-09-07T19:17:41.898Z,22.71
2022-09-07T19:20:09.193Z,22.67
2022-09-07T19:22:35.766Z,22.57
2022-09-07T19:25:02.287Z,22.57
2022-09-07T19:27:33.002Z,22.46
2022-09-07T19:29:59.642Z,22.41
2022-09-07T19:32:26.174Z,22.33
2022-09-07T19:34:54.689Z,22.34
2022-09-07T19:37:28.826Z,22.33
2022-09-07T19:39:59.119Z,22.24
2022-09-07T19:42:25.948Z,22.22
2022-09-07T19:44:54.086Z,22.39
2022-09-07T19:47:21.778Z,22.30
2022-09-07T19:49:48.354Z,22.28
2022-09-07T19:52:15.441Z,22.24
2022-09-07T19:54:44.412Z,22.22
2022-09-07T19:57:11.095Z,22.19
2022-09-07T19:59:37.627Z,22.23
2022-09-07T20:02:07.450Z,22.21
2022-09-07T20:04:36.206Z,22.17
2022-09-07T20:07:03.013Z,22.15
2022-09-07T20:09:29.571Z,22.09
2022-09-07T20:11:56.097Z,22.06
2022-09-07T20:14:22.631Z,21.92
2022-09-07T20:16:49.194Z,21.84
2022-09-07T20:19:15.854Z,21.78
2022-09-07T20:21:42.865Z,21.63
2022-09-07T20:24:12.040Z,21.59
2022-09-07T20:26:38.590Z,21.49
2022-09-07T20:29:26.246Z,21.43
2022-09-07T20:31:53.606Z,21.33
2022-09-07T20:34:20.390Z,21.29
2022-09-07T20:36:49.467Z,21.25
2022-09-07T20:39:16.480Z,21.17
2022-09-07T20:41:45.527Z,21.19
2022-09-07T20:44:12.217Z,21.21
2022-09-07T20:46:38.811Z,21.17
2022-09-07T20:49:05.764Z,21.14
2022-09-07T20:51:32.500Z,21.05
2022-09-07T20:53:59.211Z,21.10
2022-09-07T20:56:27.974Z,21.10
2022-09-07T20:59:00.468Z,21.08
2022-09-07T21:01:28.566Z,20.99
2022-09-07T21:03:57.264Z,20.94
2022-09-07T21:06:25.155Z,20.90
2022-09-07T21:08:52.410Z,20.87
2022-09-07T21:11:27.583Z,20.85
2022-09-07T21:13:59.330Z,20.81
2022-09-07T21:16:29.200Z,20.79
2022-09-07T21:19:00.425Z,20.77
2022-09-07T21:21:29.897Z,20.77
2022-09-07T21:23:59.433Z,20.78
2022-09-07T21:26:30.146Z,20.81
2022-09-07T21:29:01.106Z,20.75
2022-09-07T21:31:31.947Z,20.87
2022-09-07T21:34:00.293Z,20.80
2022-09-07T21:36:29.479Z,20.86
2022-09-07T21:38:58.572Z,20.85
2022-09-07T21:41:25.624Z,20.84
2022-09-07T21:43:59.816Z,20.85
2022-09-07T21:46:27.567Z,20.81
2022-09-07T21:48:55.738Z,20.81
2022-09-07T21:51:27.828Z,20.77
2022-09-07T21:54:00.874Z,20.78
2022-09-07T21:56:29.461Z,20.75
2022-09-07T21:58:58.208Z,20.74
2022-09-07T22:01:26.514Z,20.76
2022-09-07T22:03:59.006Z,20.75
2022-09-07T22:06:32.275Z,20.77
2022-09-07T22:09:02.709Z,20.80
2022-09-07T22:11:32.239Z,20.81
2022-09-07T22:14:01.815Z,20.76
2022-09-07T22:16:29.278Z,20.79
2022-09-07T22:19:01.079Z,20.84
2022-09-07T22:21:29.118Z,20.85
2022-09-07T22:24:04.068Z,20.87
2022-09-07T22:26:37.627Z,20.88
2022-09-07T22:29:06.455Z,20.87
2022-09-07T22:31:35.360Z,20.87
2022-09-07T22:34:04.226Z,20.88
2022-09-07T22:36:42.360Z,20.86
2022-09-07T22:39:15.196Z,20.84
2022-09-07T22:41:45.749Z,20.88
2022-09-07T22:44:16.321Z,20.86
2022-09-07T22:46:44.451Z,20.84
2022-09-07T22:49:15.916Z,21.02
2022-09-07T22:51:45.440Z,20.91
2022-09-07T22:54:12.302Z,20.91
2022-09-07T22:56:41.673Z,20.87
2022-09-07T22:59:12.174Z,20.84
2022-09-07T23:01:39.506Z,20.80
2022-09-07T23:04:09.204Z,20.80
2022-09-07T23:06:38.560Z,20.82
2022-09-07T23:09:08.151Z,20.80
2022-09-07T23:11:35.209Z,20.79
2022-09-07T23:14:04.406Z,20.82
2022-09-07T23:16:31.067Z,20.77
2022-09-07T23:18:59.172Z,20.79
2022-09-07T23:21:27.371Z,20.76
2022-09-07T23:23:56.901Z,20.76
2022-09-07T23:26:25.090Z,20.76
2022-09-07T23:28:53.184Z,20.74
2022-09-07T23:31:20.434Z,20.78
2022-09-07T23:33:47.228Z,20.78
2022-09-07T23:36:17.349Z,20.78
2022-09-07T23:38:47.075Z,20.76
2022-09-07T23:41:18.012Z,20.78
2022-09-07T23:43:46.832Z,20.79
2022-09-07T23:46:16.609Z,20.80
2022-09-07T23:48:47.428Z,20.78
2022-09-07T23:51:14.759Z,20.76
2022-09-07T23:53:41.392Z,20.79
2022-09-07T23:56:11.545Z,20.77
2022-09-07T23:58:38.812Z,20.76
